sensor_id;sensor_type;location;lat;lon;timestamp;pressure;altitude;pressure_sealevel;temperature;humidity
16451;BME280;12243;42.708;23.310;2022-12-29T00:00:53;95952.47;;;6.04;94.69
16451;BME280;12243;42.708;23.310;2022-12-29T00:03:19;95953.44;;;6.02;95.50
16451;BME280;12243;42.708;23.310;2022-12-29T00:05:55;95952.75;;;5.98;96.48
16451;BME280;12243;42.708;23.310;2022-12-29T00:08:22;95949.41;;;5.96;96.66
16451;BME280;12243;42.708;23.310;2022-12-29T00:11:05;95954.97;;;6.06;96.05
16451;BME280;12243;42.708;23.310;2022-12-29T00:13:32;95949.03;;;6.04;96.12
16451;BME280;12243;42.708;23.310;2022-12-29T00:16:16;95954.53;;;5.97;96.91
16451;BME280;12243;42.708;23.310;2022-12-29T00:18:43;95956.56;;;6.08;95.75
16451;BME280;12243;42.708;23.310;2022-12-29T00:21:13;95958.84;;;6.14;96.19
16451;BME280;12243;42.708;23.310;2022-12-29T00:23:58;95966.75;;;6.11;96.13
16451;BME280;12243;42.708;23.310;2022-12-29T00:26:47;95963.00;;;6.17;95.35
16451;BME280;12243;42.708;23.310;2022-12-29T00:29:32;95971.00;;;6.12;95.61
16451;BME280;12243;42.708;23.310;2022-12-29T00:32:16;95969.63;;;6.05;96.10
16451;BME280;12243;42.708;23.310;2022-12-29T00:35:00;95971.63;;;6.00;95.36
16451;BME280;12243;42.708;23.310;2022-12-29T00:37:41;95970.28;;;5.93;95.80
16451;BME280;12243;42.708;23.310;2022-12-29T00:40:26;95980.63;;;5.93;96.29
16451;BME280;12243;42.708;23.310;2022-12-29T00:43:10;95986.88;;;5.87;96.51
16451;BME280;12243;42.708;23.310;2022-12-29T00:45:55;95980.78;;;5.88;96.47
16451;BME280;12243;42.708;23.310;2022-12-29T00:48:21;95974.53;;;5.94;96.28
16451;BME280;12243;42.708;23.310;2022-12-29T00:51:02;95978.78;;;5.95;96.55
16451;BME280;12243;42.708;23.310;2022-12-29T00:53:31;95988.03;;;5.99;96.27
16451;BME280;12243;42.708;23.310;2022-12-29T00:55:58;95982.13;;;5.97;96.51
16451;BME280;12243;42.708;23.310;2022-12-29T00:58:27;95988.97;;;5.98;97.17
16451;BME280;12243;42.708;23.310;2022-12-29T01:01:00;95981.22;;;5.98;97.09
16451;BME280;12243;42.708;23.310;2022-12-29T01:03:27;95984.19;;;6.08;96.08
16451;BME280;12243;42.708;23.310;2022-12-29T01:05:54;95982.28;;;5.94;95.61
16451;BME280;12243;42.708;23.310;2022-12-29T01:08:21;95978.78;;;5.95;97.15
16451;BME280;12243;42.708;23.310;2022-12-29T01:10:59;95974.97;;;6.02;96.46
16451;BME280;12243;42.708;23.310;2022-12-29T01:13:26;95974.13;;;6.02;95.48
16451;BME280;12243;42.708;23.310;2022-12-29T01:15:54;95971.44;;;6.03;95.43
16451;BME280;12243;42.708;23.310;2022-12-29T01:18:21;95977.34;;;6.07;95.25
16451;BME280;12243;42.708;23.310;2022-12-29T01:20:48;95971.78;;;5.97;95.83
16451;BME280;12243;42.708;23.310;2022-12-29T01:23:15;95965.94;;;5.93;95.53
16451;BME280;12243;42.708;23.310;2022-12-29T01:25:44;95977.09;;;5.94;95.77
16451;BME280;12243;42.708;23.310;2022-12-29T01:28:12;95967.69;;;5.93;95.17
16451;BME280;12243;42.708;23.310;2022-12-29T01:30:39;95966.66;;;5.95;95.34
16451;BME280;12243;42.708;23.310;2022-12-29T01:33:06;95962.31;;;5.79;96.66
16451;BME280;12243;42.708;23.310;2022-12-29T01:35:33;95959.03;;;5.75;97.39
16451;BME280;12243;42.708;23.310;2022-12-29T01:38:00;95947.56;;;5.81;97.39
16451;BME280;12243;42.708;23.310;2022-12-29T01:40:26;95950.41;;;5.76;97.08
16451;BME280;12243;42.708;23.310;2022-12-29T01:42:53;95946.19;;;5.73;96.56
16451;BME280;12243;42.708;23.310;2022-12-29T01:45:22;95948.78;;;5.73;97.13
16451;BME280;12243;42.708;23.310;2022-12-29T01:47:50;95940.19;;;5.73;96.47
16451;BME280;12243;42.708;23.310;2022-12-29T01:50:22;95944.97;;;5.81;96.52
16451;BME280;12243;42.708;23.310;2022-12-29T01:52:56;95944.31;;;5.77;96.05
16451;BME280;12243;42.708;23.310;2022-12-29T01:55:26;95940.59;;;5.65;97.39
16451;BME280;12243;42.708;23.310;2022-12-29T01:57:56;95948.53;;;5.61;97.23
16451;BME280;12243;42.708;23.310;2022-12-29T02:00:26;95940.59;;;5.65;97.46
16451;BME280;12243;42.708;23.310;2022-12-29T02:02:54;95932.22;;;5.60;97.21
16451;BME280;12243;42.708;23.310;2022-12-29T02:05:27;95930.53;;;5.59;97.94
16451;BME280;12243;42.708;23.310;2022-12-29T02:08:12;95924.41;;;5.62;97.76
16451;BME280;12243;42.708;23.310;2022-12-29T02:10:40;95926.22;;;5.60;97.66
16451;BME280;12243;42.708;23.310;2022-12-29T02:13:09;95941.81;;;5.58;96.90
16451;BME280;12243;42.708;23.310;2022-12-29T02:15:44;95932.50;;;5.54;96.68
16451;BME280;12243;42.708;23.310;2022-12-29T02:18:25;95930.84;;;5.53;96.98
16451;BME280;12243;42.708;23.310;2022-12-29T02:27:34;95926.44;;;5.38;96.91
16451;BME280;12243;42.708;23.310;2022-12-29T02:30:16;95929.59;;;5.43;97.89
16451;BME280;12243;42.708;23.310;2022-12-29T02:32:54;95926.28;;;5.41;97.64
16451;BME280;12243;42.708;23.310;2022-12-29T02:35:32;95924.94;;;5.51;96.16
16451;BME280;12243;42.708;23.310;2022-12-29T02:38:11;95928.72;;;5.44;95.92
16451;BME280;12243;42.708;23.310;2022-12-29T02:40:44;95930.97;;;5.33;95.99
16451;BME280;12243;42.708;23.310;2022-12-29T02:43:19;95925.34;;;5.24;96.74
16451;BME280;12243;42.708;23.310;2022-12-29T02:45:53;95925.78;;;5.33;97.06
16451;BME280;12243;42.708;23.310;2022-12-29T02:48:28;95929.47;;;5.46;96.85
16451;BME280;12243;42.708;23.310;2022-12-29T02:51:00;95931.59;;;5.38;96.70
16451;BME280;12243;42.708;23.310;2022-12-29T02:53:29;95924.91;;;5.34;97.13
16451;BME280;12243;42.708;23.310;2022-12-29T02:56:16;95923.22;;;5.33;97.64
16451;BME280;12243;42.708;23.310;2022-12-29T02:58:43;95930.59;;;5.40;97.84
16451;BME280;12243;42.708;23.310;2022-12-29T03:01:21;95921.81;;;5.44;96.60
16451;BME280;12243;42.708;23.310;2022-12-29T03:04:04;95916.41;;;5.49;97.53
16451;BME280;12243;42.708;23.310;2022-12-29T03:06:46;95920.50;;;5.53;97.72
16451;BME280;12243;42.708;23.310;2022-12-29T03:09:21;95918.69;;;5.55;98.06
16451;BME280;12243;42.708;23.310;2022-12-29T03:11:58;95909.88;;;5.59;98.10
16451;BME280;12243;42.708;23.310;2022-12-29T03:14:42;95901.97;;;5.62;98.10
16451;BME280;12243;42.708;23.310;2022-12-29T03:17:32;95906.75;;;5.70;97.73
16451;BME280;12243;42.708;23.310;2022-12-29T03:20:07;95905.78;;;5.72;97.36
16451;BME280;12243;42.708;23.310;2022-12-29T03:22:39;95896.94;;;5.77;96.61
16451;BME280;12243;42.708;23.310;2022-12-29T03:25:14;95899.09;;;5.68;95.78
16451;BME280;12243;42.708;23.310;2022-12-29T03:27:45;95897.41;;;5.67;95.18
16451;BME280;12243;42.708;23.310;2022-12-29T03:30:13;95901.06;;;5.63;95.53
16451;BME280;12243;42.708;23.310;2022-12-29T03:32:43;95910.16;;;5.53;95.30
16451;BME280;12243;42.708;23.310;2022-12-29T03:35:16;95908.50;;;5.52;95.59
16451;BME280;12243;42.708;23.310;2022-12-29T03:37:50;95913.00;;;5.48;94.88
16451;BME280;12243;42.708;23.310;2022-12-29T03:40:21;95903.91;;;5.40;95.28
16451;BME280;12243;42.708;23.310;2022-12-29T03:42:50;95907.72;;;5.33;96.18
16451;BME280;12243;42.708;23.310;2022-12-29T03:45:19;95907.25;;;5.24;96.14
16451;BME280;12243;42.708;23.310;2022-12-29T03:47:46;95914.72;;;5.31;95.64
16451;BME280;12243;42.708;23.310;2022-12-29T03:50:16;95921.38;;;5.17;95.76
16451;BME280;12243;42.708;23.310;2022-12-29T03:52:43;95924.97;;;4.96;95.98
16451;BME280;12243;42.708;23.310;2022-12-29T03:55:10;95924.28;;;4.73;97.65
16451;BME280;12243;42.708;23.310;2022-12-29T03:57:38;95928.03;;;4.66;98.85
16451;BME280;12243;42.708;23.310;2022-12-29T04:00:09;95932.38;;;4.47;99.44
16451;BME280;12243;42.708;23.310;2022-12-29T04:02:44;95935.09;;;4.44;99.87
16451;BME280;12243;42.708;23.310;2022-12-29T04:05:18;95929.41;;;4.36;100.00
16451;BME280;12243;42.708;23.310;2022-12-29T04:07:47;95935.63;;;4.32;100.00
16451;BME280;12243;42.708;23.310;2022-12-29T04:10:14;95931.25;;;4.34;100.00
16451;BME280;12243;42.708;23.310;2022-12-29T04:12:46;95933.88;;;4.32;100.00
16451;BME280;12243;42.708;23.310;2022-12-29T04:15:13;95928.94;;;4.27;100.00
16451;BME280;12243;42.708;23.310;2022-12-29T04:17:41;95938.31;;;4.28;100.00
16451;BME280;12243;42.708;23.310;2022-12-29T04:20:08;95932.34;;;4.28;100.00
16451;BME280;12243;42.708;23.310;2022-12-29T04:23:00;95936.78;;;4.24;100.00
16451;BME280;12243;42.708;23.310;2022-12-29T04:25:28;95934.75;;;4.33;100.00
16451;BME280;12243;42.708;23.310;2022-12-29T04:27:56;95936.63;;;4.29;100.00
16451;BME280;12243;42.708;23.310;2022-12-29T04:30:50;95930.53;;;4.30;100.00
16451;BME280;12243;42.708;23.310;2022-12-29T04:33:27;95943.34;;;4.32;100.00
16451;BME280;12243;42.708;23.310;2022-12-29T04:35:55;95949.56;;;4.27;100.00
16451;BME280;12243;42.708;23.310;2022-12-29T04:38:24;95949.19;;;4.16;100.00
16451;BME280;12243;42.708;23.310;2022-12-29T04:40:53;95952.38;;;4.21;100.00
16451;BME280;12243;42.708;23.310;2022-12-29T04:43:22;95952.38;;;4.21;100.00
16451;BME280;12243;42.708;23.310;2022-12-29T04:46:09;95954.09;;;4.22;100.00
16451;BME280;12243;42.708;23.310;2022-12-29T04:48:56;95948.81;;;4.25;100.00
16451;BME280;12243;42.708;23.310;2022-12-29T04:51:44;95965.81;;;4.29;100.00
16451;BME280;12243;42.708;23.310;2022-12-29T04:54:14;95967.47;;;4.30;100.00
16451;BME280;12243;42.708;23.310;2022-12-29T04:56:45;95967.25;;;4.35;100.00
16451;BME280;12243;42.708;23.310;2022-12-29T04:59:14;95962.19;;;4.34;100.00
16451;BME280;12243;42.708;23.310;2022-12-29T05:01:43;95966.22;;;4.39;100.00
16451;BME280;12243;42.708;23.310;2022-12-29T05:04:11;95968.63;;;4.44;100.00
16451;BME280;12243;42.708;23.310;2022-12-29T05:06:37;95967.69;;;4.45;100.00
16451;BME280;12243;42.708;23.310;2022-12-29T05:09:04;95961.63;;;4.46;100.00
16451;BME280;12243;42.708;23.310;2022-12-29T05:11:34;95963.19;;;4.50;100.00
16451;BME280;12243;42.708;23.310;2022-12-29T05:14:01;95971.28;;;4.61;100.00
16451;BME280;12243;42.708;23.310;2022-12-29T05:16:28;95960.97;;;4.61;100.00
16451;BME280;12243;42.708;23.310;2022-12-29T05:18:56;95969.47;;;4.63;100.00
16451;BME280;12243;42.708;23.310;2022-12-29T05:21:23;95970.16;;;4.67;100.00
16451;BME280;12243;42.708;23.310;2022-12-29T05:23:50;95969.06;;;4.72;100.00
16451;BME280;12243;42.708;23.310;2022-12-29T05:26:17;95968.00;;;4.76;100.00
16451;BME280;12243;42.708;23.310;2022-12-29T05:28:54;95961.94;;;4.77;100.00
16451;BME280;12243;42.708;23.310;2022-12-29T05:31:22;95960.78;;;4.85;100.00
16451;BME280;12243;42.708;23.310;2022-12-29T05:33:49;95962.31;;;4.89;100.00
16451;BME280;12243;42.708;23.310;2022-12-29T05:36:17;95971.56;;;4.93;100.00
16451;BME280;12243;42.708;23.310;2022-12-29T05:38:48;95972.13;;;4.99;100.00
16451;BME280;12243;42.708;23.310;2022-12-29T05:41:16;95977.72;;;5.09;100.00
16451;BME280;12243;42.708;23.310;2022-12-29T05:44:11;95974.41;;;5.24;99.61
16451;BME280;12243;42.708;23.310;2022-12-29T05:47:07;95968.47;;;5.22;98.78
16451;BME280;12243;42.708;23.310;2022-12-29T05:49:50;95970.16;;;5.23;98.92
16451;BME280;12243;42.708;23.310;2022-12-29T05:52:29;95968.47;;;5.22;97.86
16451;BME280;12243;42.708;23.310;2022-12-29T05:54:56;95978.66;;;5.25;97.89
16451;BME280;12243;42.708;23.310;2022-12-29T05:57:25;95981.88;;;5.31;97.98
16451;BME280;12243;42.708;23.310;2022-12-29T06:00:09;95977.41;;;5.34;97.64
16451;BME280;12243;42.708;23.310;2022-12-29T06:02:43;95978.50;;;5.29;97.40
16451;BME280;12243;42.708;23.310;2022-12-29T06:05:10;95978.38;;;5.32;97.44
16451;BME280;12243;42.708;23.310;2022-12-29T06:07:38;95983.25;;;5.38;97.67
16451;BME280;12243;42.708;23.310;2022-12-29T06:10:07;95982.78;;;5.47;96.78
16451;BME280;12243;42.708;23.310;2022-12-29T06:13:00;95986.00;;;5.52;97.00
16451;BME280;12243;42.708;23.310;2022-12-29T06:15:31;95983.88;;;5.60;95.77
16451;BME280;12243;42.708;23.310;2022-12-29T06:17:58;95993.69;;;5.71;95.25
16451;BME280;12243;42.708;23.310;2022-12-29T06:20:25;95993.78;;;5.69;95.06
16451;BME280;12243;42.708;23.310;2022-12-29T06:22:53;95995.16;;;5.77;94.07
16451;BME280;12243;42.708;23.310;2022-12-29T06:25:22;95983.75;;;5.63;94.30
16451;BME280;12243;42.708;23.310;2022-12-29T06:27:49;95992.28;;;5.65;94.12
16451;BME280;12243;42.708;23.310;2022-12-29T06:30:16;95989.59;;;5.67;94.51
16451;BME280;12243;42.708;23.310;2022-12-29T06:32:45;95995.44;;;5.70;93.73
16451;BME280;12243;42.708;23.310;2022-12-29T06:35:13;95990.66;;;5.63;94.24
16451;BME280;12243;42.708;23.310;2022-12-29T06:37:49;95999.25;;;5.63;95.02
16451;BME280;12243;42.708;23.310;2022-12-29T06:40:16;95998.97;;;5.69;94.65
16451;BME280;12243;42.708;23.310;2022-12-29T06:43:04;95998.66;;;5.76;94.27
16451;BME280;12243;42.708;23.310;2022-12-29T06:45:57;96004.34;;;5.82;93.36
16451;BME280;12243;42.708;23.310;2022-12-29T06:48:25;96004.34;;;5.82;93.47
16451;BME280;12243;42.708;23.310;2022-12-29T06:50:52;96001.47;;;5.88;93.46
16451;BME280;12243;42.708;23.310;2022-12-29T06:53:19;96004.75;;;5.92;92.63
16451;BME280;12243;42.708;23.310;2022-12-29T06:55:45;96003.78;;;5.94;92.68
16451;BME280;12243;42.708;23.310;2022-12-29T06:58:12;95999.16;;;6.01;92.35
16451;BME280;12243;42.708;23.310;2022-12-29T07:00:39;96001.19;;;6.12;91.74
16451;BME280;12243;42.708;23.310;2022-12-29T07:03:06;96016.88;;;6.09;91.74
16451;BME280;12243;42.708;23.310;2022-12-29T07:05:34;96012.47;;;6.11;91.88
16451;BME280;12243;42.708;23.310;2022-12-29T07:08:01;96013.00;;;6.17;91.59
16451;BME280;12243;42.708;23.310;2022-12-29T07:10:28;96004.59;;;6.30;91.85
16451;BME280;12243;42.708;23.310;2022-12-29T07:12:55;96005.97;;;6.37;91.05
16451;BME280;12243;42.708;23.310;2022-12-29T07:15:22;96007.47;;;6.41;90.69
16451;BME280;12243;42.708;23.310;2022-12-29T07:17:48;96006.34;;;6.47;91.13
16451;BME280;12243;42.708;23.310;2022-12-29T07:20:16;95999.22;;;6.67;90.55
16451;BME280;12243;42.708;23.310;2022-12-29T07:22:44;96006.31;;;6.80;89.55
16451;BME280;12243;42.708;23.310;2022-12-29T07:25:14;95995.19;;;6.95;89.71
16451;BME280;12243;42.708;23.310;2022-12-29T07:27:41;95996.59;;;7.16;91.69
16451;BME280;12243;42.708;23.310;2022-12-29T07:30:08;96001.44;;;7.38;87.86
16451;BME280;12243;42.708;23.310;2022-12-29T07:32:35;96007.28;;;7.42;86.12
16451;BME280;12243;42.708;23.310;2022-12-29T07:35:02;96002.28;;;7.39;87.02
16451;BME280;12243;42.708;23.310;2022-12-29T07:37:29;95999.94;;;7.50;85.46
16451;BME280;12243;42.708;23.310;2022-12-29T07:39:57;96005.09;;;7.66;84.56
16451;BME280;12243;42.708;23.310;2022-12-29T07:42:25;95999.84;;;7.68;83.83
16451;BME280;12243;42.708;23.310;2022-12-29T07:44:51;96002.00;;;7.59;84.72
16451;BME280;12243;42.708;23.310;2022-12-29T07:47:25;96005.25;;;7.79;84.58
16451;BME280;12243;42.708;23.310;2022-12-29T07:49:53;96010.84;;;7.87;82.85
16451;BME280;12243;42.708;23.310;2022-12-29T07:52:20;96003.59;;;7.78;83.46
16451;BME280;12243;42.708;23.310;2022-12-29T07:54:47;96011.75;;;7.86;84.41
16451;BME280;12243;42.708;23.310;2022-12-29T07:57:15;96012.09;;;7.80;83.96
16451;BME280;12243;42.708;23.310;2022-12-29T07:59:41;96009.66;;;7.93;83.97
16451;BME280;12243;42.708;23.310;2022-12-29T08:02:09;96018.66;;;8.01;81.86
16451;BME280;12243;42.708;23.310;2022-12-29T08:04:36;96025.25;;;8.07;83.60
16451;BME280;12243;42.708;23.310;2022-12-29T08:07:03;96028.13;;;8.02;83.95
16451;BME280;12243;42.708;23.310;2022-12-29T08:09:30;96020.97;;;7.92;82.95
16451;BME280;12243;42.708;23.310;2022-12-29T08:11:57;96020.06;;;8.07;83.63
16451;BME280;12243;42.708;23.310;2022-12-29T08:14:25;96016.38;;;8.11;83.25
16451;BME280;12243;42.708;23.310;2022-12-29T08:16:52;96021.25;;;8.01;81.87
16451;BME280;12243;42.708;23.310;2022-12-29T08:19:18;96009.22;;;8.00;83.03
16451;BME280;12243;42.708;23.310;2022-12-29T08:21:45;96016.88;;;8.18;82.86
16451;BME280;12243;42.708;23.310;2022-12-29T08:24:12;96017.34;;;8.24;83.34
16451;BME280;12243;42.708;23.310;2022-12-29T08:26:39;96007.69;;;8.42;82.52
16451;BME280;12243;42.708;23.310;2022-12-29T08:29:06;96018.44;;;8.50;81.49
16451;BME280;12243;42.708;23.310;2022-12-29T08:31:34;96015.84;;;8.65;81.89
16451;BME280;12243;42.708;23.310;2022-12-29T08:34:01;96011.97;;;8.86;80.60
16451;BME280;12243;42.708;23.310;2022-12-29T08:36:28;96013.63;;;9.01;80.56
16451;BME280;12243;42.708;23.310;2022-12-29T08:38:56;96019.75;;;9.15;79.07
16451;BME280;12243;42.708;23.310;2022-12-29T08:41:23;96021.22;;;9.19;78.69
16451;BME280;12243;42.708;23.310;2022-12-29T08:43:50;96017.31;;;9.26;78.02
16451;BME280;12243;42.708;23.310;2022-12-29T08:46:17;96016.75;;;9.35;77.99
16451;BME280;12243;42.708;23.310;2022-12-29T08:48:46;96018.97;;;9.27;78.44
16451;BME280;12243;42.708;23.310;2022-12-29T08:51:13;96015.84;;;9.22;78.33
16451;BME280;12243;42.708;23.310;2022-12-29T08:53:40;96014.69;;;9.40;76.91
16451;BME280;12243;42.708;23.310;2022-12-29T08:56:09;96016.34;;;9.41;77.83
16451;BME280;12243;42.708;23.310;2022-12-29T08:58:45;96007.19;;;9.36;77.23
16451;BME280;12243;42.708;23.310;2022-12-29T09:01:11;96003.47;;;9.40;77.33
16451;BME280;12243;42.708;23.310;2022-12-29T09:03:38;95998.25;;;9.40;76.80
16451;BME280;12243;42.708;23.310;2022-12-29T09:06:07;95999.09;;;9.40;78.11
16451;BME280;12243;42.708;23.310;2022-12-29T09:08:34;95992.72;;;9.59;78.24
16451;BME280;12243;42.708;23.310;2022-12-29T09:11:07;95994.88;;;9.79;75.31
16451;BME280;12243;42.708;23.310;2022-12-29T09:13:34;95989.88;;;9.76;75.78
16451;BME280;12243;42.708;23.310;2022-12-29T09:16:01;95996.63;;;9.51;76.05
16451;BME280;12243;42.708;23.310;2022-12-29T09:18:28;95989.97;;;9.47;77.09
16451;BME280;12243;42.708;23.310;2022-12-29T09:20:56;95984.56;;;9.50;77.14
16451;BME280;12243;42.708;23.310;2022-12-29T09:23:26;95994.97;;;9.50;78.25
16451;BME280;12243;42.708;23.310;2022-12-29T09:25:53;95984.06;;;9.58;77.19
16451;BME280;12243;42.708;23.310;2022-12-29T09:28:20;95988.31;;;9.46;77.28
16451;BME280;12243;42.708;23.310;2022-12-29T09:30:47;95978.59;;;9.63;77.16
16451;BME280;12243;42.708;23.310;2022-12-29T09:33:15;95975.25;;;9.61;76.71
16451;BME280;12243;42.708;23.310;2022-12-29T09:35:42;95973.78;;;9.57;77.02
16451;BME280;12243;42.708;23.310;2022-12-29T09:38:10;95969.47;;;9.70;77.78
16451;BME280;12243;42.708;23.310;2022-12-29T09:40:39;95964.13;;;9.98;76.52
16451;BME280;12243;42.708;23.310;2022-12-29T09:43:21;95962.28;;;10.13;75.15
16451;BME280;12243;42.708;23.310;2022-12-29T09:45:55;95965.50;;;10.17;75.63
16451;BME280;12243;42.708;23.310;2022-12-29T09:48:29;95955.09;;;10.17;75.12
16451;BME280;12243;42.708;23.310;2022-12-29T09:50:59;95954.72;;;10.48;75.17
16451;BME280;12243;42.708;23.310;2022-12-29T09:53:33;95952.00;;;10.63;74.44
16451;BME280;12243;42.708;23.310;2022-12-29T09:56:05;95944.38;;;10.85;74.73
16451;BME280;12243;42.708;23.310;2022-12-29T09:58:40;95945.97;;;11.12;73.80
16451;BME280;12243;42.708;23.310;2022-12-29T10:01:16;95944.28;;;11.24;71.26
16451;BME280;12243;42.708;23.310;2022-12-29T10:03:51;95937.31;;;11.24;70.82
16451;BME280;12243;42.708;23.310;2022-12-29T10:06:24;95941.91;;;11.20;70.85
16451;BME280;12243;42.708;23.310;2022-12-29T10:08:59;95927.88;;;10.97;71.61
16451;BME280;12243;42.708;23.310;2022-12-29T10:11:46;95932.13;;;10.62;72.58
16451;BME280;12243;42.708;23.310;2022-12-29T10:14:28;95936.16;;;10.66;75.02
16451;BME280;12243;42.708;23.310;2022-12-29T10:17:03;95916.91;;;10.68;73.07
16451;BME280;12243;42.708;23.310;2022-12-29T10:19:50;95920.03;;;10.61;74.64
16451;BME280;12243;42.708;23.310;2022-12-29T10:22:29;95918.69;;;10.55;75.56
16451;BME280;12243;42.708;23.310;2022-12-29T10:24:59;95916.78;;;10.70;75.02
16451;BME280;12243;42.708;23.310;2022-12-29T10:27:32;95912.81;;;10.77;75.04
16451;BME280;12243;42.708;23.310;2022-12-29T10:30:01;95907.47;;;10.91;72.96
16451;BME280;12243;42.708;23.310;2022-12-29T10:32:32;95920.59;;;10.90;74.54
16451;BME280;12243;42.708;23.310;2022-12-29T10:35:05;95909.53;;;10.99;74.82
16451;BME280;12243;42.708;23.310;2022-12-29T10:37:41;95906.09;;;10.99;73.79
16451;BME280;12243;42.708;23.310;2022-12-29T10:40:18;95906.94;;;10.99;72.45
16451;BME280;12243;42.708;23.310;2022-12-29T10:42:50;95903.88;;;11.05;72.64
16451;BME280;12243;42.708;23.310;2022-12-29T10:45:19;95899.94;;;11.00;73.55
16451;BME280;12243;42.708;23.310;2022-12-29T10:47:53;95896.81;;;10.94;73.39
16451;BME280;12243;42.708;23.310;2022-12-29T10:50:24;95884.72;;;10.93;74.05
16451;BME280;12243;42.708;23.310;2022-12-29T10:52:51;95890.97;;;10.91;74.07
16451;BME280;12243;42.708;23.310;2022-12-29T10:55:21;95882.41;;;11.02;74.00
16451;BME280;12243;42.708;23.310;2022-12-29T10:57:51;95875.31;;;11.04;74.29
16451;BME280;12243;42.708;23.310;2022-12-29T11:00:19;95882.59;;;11.11;74.05
16451;BME280;12243;42.708;23.310;2022-12-29T11:03:01;95873.59;;;11.15;73.49
16451;BME280;12243;42.708;23.310;2022-12-29T11:05:38;95872.88;;;11.13;73.04
16451;BME280;12243;42.708;23.310;2022-12-29T11:08:10;95870.63;;;11.09;73.94
16451;BME280;12243;42.708;23.310;2022-12-29T11:10:40;95865.69;;;11.17;73.61
16451;BME280;12243;42.708;23.310;2022-12-29T11:13:14;95863.25;;;11.27;73.52
16451;BME280;12243;42.708;23.310;2022-12-29T11:15:43;95854.91;;;11.45;73.54
16451;BME280;12243;42.708;23.310;2022-12-29T11:18:22;95850.88;;;11.53;72.78
16451;BME280;12243;42.708;23.310;2022-12-29T11:20:50;95852.31;;;11.57;73.00
16451;BME280;12243;42.708;23.310;2022-12-29T11:23:30;95850.53;;;11.57;73.26
16451;BME280;12243;42.708;23.310;2022-12-29T11:26:07;95850.84;;;11.77;72.79
16451;BME280;12243;42.708;23.310;2022-12-29T11:28:40;95844.69;;;11.78;72.03
16451;BME280;12243;42.708;23.310;2022-12-29T11:31:08;95849.06;;;11.77;72.71
16451;BME280;12243;42.708;23.310;2022-12-29T11:33:37;95854.69;;;11.84;72.36
16451;BME280;12243;42.708;23.310;2022-12-29T11:36:06;95853.63;;;11.86;71.40
16451;BME280;12243;42.708;23.310;2022-12-29T11:38:34;95854.50;;;11.74;72.60
16451;BME280;12243;42.708;23.310;2022-12-29T11:41:04;95849.78;;;11.68;73.01
16451;BME280;12243;42.708;23.310;2022-12-29T11:43:33;95847.41;;;11.76;73.05
16451;BME280;12243;42.708;23.310;2022-12-29T11:46:03;95844.34;;;11.82;71.86
16451;BME280;12243;42.708;23.310;2022-12-29T11:48:37;95835.84;;;11.91;72.03
16451;BME280;12243;42.708;23.310;2022-12-29T11:51:05;95843.94;;;12.00;71.36
16451;BME280;12243;42.708;23.310;2022-12-29T11:53:37;95840.38;;;12.01;71.08
16451;BME280;12243;42.708;23.310;2022-12-29T11:56:08;95841.78;;;12.05;70.80
16451;BME280;12243;42.708;23.310;2022-12-29T11:58:38;95835.63;;;12.06;70.86
16451;BME280;12243;42.708;23.310;2022-12-29T12:01:11;95832.78;;;11.98;70.60
16451;BME280;12243;42.708;23.310;2022-12-29T12:03:45;95832.53;;;11.89;70.42
16451;BME280;12243;42.708;23.310;2022-12-29T12:06:16;95831.16;;;11.73;71.18
16451;BME280;12243;42.708;23.310;2022-12-29T12:08:50;95835.25;;;11.64;72.32
16451;BME280;12243;42.708;23.310;2022-12-29T12:11:22;95832.06;;;11.60;72.40
16451;BME280;12243;42.708;23.310;2022-12-29T12:13:58;95824.78;;;11.41;73.07
16451;BME280;12243;42.708;23.310;2022-12-29T12:16:37;95820.00;;;11.35;73.73
16451;BME280;12243;42.708;23.310;2022-12-29T12:19:13;95818.91;;;11.27;75.01
16451;BME280;12243;42.708;23.310;2022-12-29T12:21:46;95818.00;;;11.39;75.13
16451;BME280;12243;42.708;23.310;2022-12-29T12:24:30;95820.72;;;11.37;75.21
16451;BME280;12243;42.708;23.310;2022-12-29T12:27:07;95811.97;;;11.38;74.63
16451;BME280;12243;42.708;23.310;2022-12-29T12:29:38;95807.13;;;11.45;74.96
16451;BME280;12243;42.708;23.310;2022-12-29T12:32:14;95810.09;;;11.52;74.69
16451;BME280;12243;42.708;23.310;2022-12-29T12:34:43;95801.91;;;11.45;73.76
16451;BME280;12243;42.708;23.310;2022-12-29T12:37:23;95812.19;;;11.35;74.11
16451;BME280;12243;42.708;23.310;2022-12-29T12:40:07;95806.75;;;11.38;75.10
16451;BME280;12243;42.708;23.310;2022-12-29T12:42:49;95805.47;;;11.44;73.48
16451;BME280;12243;42.708;23.310;2022-12-29T12:45:35;95796.09;;;11.41;74.95
16451;BME280;12243;42.708;23.310;2022-12-29T12:48:27;95807.31;;;11.31;75.24
16451;BME280;12243;42.708;23.310;2022-12-29T12:51:05;95799.81;;;11.26;75.50
16451;BME280;12243;42.708;23.310;2022-12-29T12:53:48;95803.28;;;11.27;75.26
16451;BME280;12243;42.708;23.310;2022-12-29T12:56:44;95804.53;;;11.21;76.61
16451;BME280;12243;42.708;23.310;2022-12-29T12:59:23;95798.09;;;11.38;80.38
16451;BME280;12243;42.708;23.310;2022-12-29T13:02:01;95805.66;;;11.30;76.67
16451;BME280;12243;42.708;23.310;2022-12-29T13:04:48;95797.31;;;11.25;75.02
16451;BME280;12243;42.708;23.310;2022-12-29T13:07:29;95800.47;;;11.06;76.08
16451;BME280;12243;42.708;23.310;2022-12-29T13:10:19;95806.88;;;11.13;77.20
16451;BME280;12243;42.708;23.310;2022-12-29T13:12:55;95802.50;;;11.13;75.64
16451;BME280;12243;42.708;23.310;2022-12-29T13:15:38;95801.06;;;11.09;76.12
16451;BME280;12243;42.708;23.310;2022-12-29T13:18:16;95805.16;;;11.01;76.66
16451;BME280;12243;42.708;23.310;2022-12-29T13:20:51;95798.16;;;11.01;76.52
16451;BME280;12243;42.708;23.310;2022-12-29T13:23:25;95804.34;;;11.00;76.68
16451;BME280;12243;42.708;23.310;2022-12-29T13:26:03;95808.50;;;11.03;77.43
16451;BME280;12243;42.708;23.310;2022-12-29T13:28:37;95811.81;;;11.05;76.87